Latest Weather Observations for Moree

IDN60801

Issued at 9:02 am EDT Sunday 29 March 2015 (issued every 30 minutes, with the page automatically refreshed every 10 minutes)

About weather observations | Map of weather stations | Latest weather observations for NSW | Other Formats
Station Details ID: 053115 Name: MOREE AERO Lat: -29.49 Lon: 149.85 Height: 213.0 m
Data from the previous 72 hours. | See also: Recent months at Moree
Date/Time
EDT
Temp
°C
App
Temp
°C
Dew
Point
Rel
Hum
%
Delta-T
°C
Wind Press
QNH
hPa
Press
MSL
hPa
Rain
since 9 am
mm
Dir
 
Spd
km/h
Gust
km/h
Spd
kts
Gust
kts
29/07:30am 13.5 10.9 7.9 69 2.8 ENE 11 15 6 8 1022.1 1021.0 0.0
29/07:00am 12.7 9.5 6.7 67 2.9 E 13 15 7 8 1021.9 1020.8 0.0
29/06:30am 13.0 10.3 5.7 61 3.5 ENE 9 11 5 6 1021.3 1020.3 0.0
29/06:00am 12.8 9.6 5.0 59 3.6 NE 11 13 6 7 1020.6 1019.6 0.0
29/05:30am 13.2 9.4 4.1 54 4.2 ENE 13 15 7 8 1020.2 1019.2 0.0
29/05:00am 12.4 8.4 2.8 52 4.2 NE 13 17 7 9 1020.1 1019.1 0.0
29/04:30am 13.5 9.5 2.7 48 4.8 ENE 13 15 7 8 1020.1 1019.1 0.0
29/04:00am 12.7 8.3 2.8 51 4.4 ENE 15 17 8 9 1019.9 1018.9 0.0
29/03:30am 13.4 8.9 2.3 47 4.9 ENE 15 19 8 10 1019.8 1018.8 0.0
29/03:00am 14.2 8.1 2.8 46 5.1 ENE 24 30 13 16 1020.1 1019.1 0.0
29/02:30am 14.1 10.8 2.4 45 5.2 ESE 9 11 5 6 1019.9 1018.9 0.0
29/02:00am 14.0 10.0 0.6 40 5.7 SE 11 13 6 7 1020.0 1019.0 0.0
29/01:30am 15.1 11.7 1.6 40 6.0 ESE 9 9 5 5 1020.2 1019.2 0.0
29/01:00am 14.7 12.5 0.9 39 6.0 S 2 7 1 4 1020.2 1019.2 0.0
29/12:30am 15.7 13.9 1.1 37 6.4 CALM 0 0 0 0 1020.2 1019.2 0.0
29/12:00am 16.1 12.9 -0.2 33 7.0 SSW 6 7 3 4 1020.3 1019.3 0.0
 
Date/Time
EDT
Temp
°C
App
Temp
°C
Dew
Point
Rel
Hum
%
Delta-T
°C
Wind Press
QNH
hPa
Press
MSL
hPa
Rain
since 9 am
mm
Dir
 
Spd
km/h
Gust
km/h
Spd
kts
Gust
kts
28/11:30pm 16.3 13.2 0.0 33 7.1 SSW 6 7 3 4 1020.4 1019.4 0.0
28/11:00pm 17.2 13.9 -0.1 31 7.5 SW 7 9 4 5 1020.4 1019.4 0.0
28/10:30pm 18.5 14.5 0.2 29 8.1 S 11 13 6 7 1020.4 1019.4 0.0
28/10:00pm 19.2 15.5 -0.2 27 8.5 S 9 11 5 6 1020.5 1019.5 0.0
28/09:30pm 20.2 15.7 -0.4 25 9.1 S 13 13 7 7 1020.5 1019.5 0.0
28/09:00pm 20.1 15.3 -2.3 22 9.5 SSW 13 13 7 7 1020.2 1019.2 0.0
28/08:30pm 22.3 18.8 -1.7 20 10.6 WSW 7 7 4 4 1019.9 1018.9 0.0
28/08:00pm 22.1 20.2 0.6 24 9.9 CALM 0 0 0 0 1019.5 1018.5 0.0
28/07:30pm 23.4 21.3 -0.8 20 10.9 CALM 0 0 0 0 1019.2 1018.2 0.0
28/07:00pm 26.7 23.1 -4.0 13 13.4 SSW 6 7 3 4 1019.0 1017.9 0.0
28/06:30pm 28.4 23.8 -3.7 12 14.3 SSW 11 15 6 8 1018.7 1017.6 0.0
28/06:00pm 28.8 24.3 -3.4 12 14.5 S 11 17 6 9 1018.7 1017.6 0.0
28/05:30pm 29.4 24.6 -2.9 12 14.7 SW 13 20 7 11 1018.6 1017.5 0.0
28/05:00pm 29.5 23.9 -2.9 12 14.8 SSW 17 22 9 12 1018.5 1017.4 0.0
28/04:30pm 29.8 24.6 -2.6 12 14.9 SSW 15 24 8 13 1018.7 1017.6 0.0
28/04:00pm 30.1 24.7 -1.3 13 14.8 SSW 17 24 9 13 1019.0 1017.9 0.0
28/03:30pm 29.7 25.5 -3.9 11 15.1 WNW 9 24 5 13 1019.1 1018.1 0.0
28/03:00pm 28.9 25.2 -4.5 11 14.7 WSW 6 19 3 10 1019.5 1018.5 0.0
28/02:30pm 29.2 25.1 -3.1 12 14.7 SW 9 20 5 11 1019.8 1018.8 0.0
28/02:00pm 27.9 22.7 -3.0 13 13.9 WNW 15 20 8 11 1020.3 1019.3 0.0
28/01:30pm 28.1 24.0 -2.9 13 14.0 NW 9 17 5 9 1020.8 1019.8 0.0
28/01:00pm 27.6 23.8 -0.5 16 13.2 SW 9 15 5 8 1021.1 1020.1 0.0
28/12:30pm 26.9 23.1 -1.0 16 12.9 WSW 9 15 5 8 1021.5 1020.4 0.0
28/12:00pm 26.8 23.0 -1.1 16 12.8 SSW 9 19 5 10 1022.2 1021.1 0.0
28/11:30am 25.4 22.4 0.8 20 11.6 NNE 6 11 3 6 1022.5 1021.4 0.0
28/11:00am 24.6 21.6 2.1 23 10.8 NNE 7 13 4 7 1022.7 1021.6 0.0
28/10:30am 23.2 20.8 2.1 25 10.1 ESE 4 13 2 7 1022.8 1021.7 0.0
28/10:00am 21.3 19.0 2.6 29 8.8 E 4 11 2 6 1022.9 1021.8 0.0
28/09:30am 19.4 16.9 3.6 35 7.5 NE 6 9 3 5 1022.8 1021.7 0.0
28/09:00am 18.0 16.4 2.7 36 7.1 CALM 0 0 0 0 1022.5 1021.4 0.0
28/08:30am 15.5 14.3 4.8 49 5.1 CALM 0 0 0 0 1022.2 1021.1 0.0
28/08:00am 11.6 10.2 3.4 57 3.6 CALM 0 0 0 0 1021.9 1020.8 0.0
28/07:30am 10.2 8.8 3.7 64 2.9 CALM 0 0 0 0 1021.5 1020.4 0.0
28/07:00am 10.0 8.6 3.3 63 2.9 CALM 0 0 0 0 1021.0 1020.0 0.0
28/06:30am 9.5 7.9 2.4 61 3.0 CALM 0 0 0 0 1020.7 1019.7 0.0
28/06:00am 9.6 8.0 2.7 62 3.0 CALM 0 0 0 0 1020.3 1019.3 0.0
28/05:30am 10.6 9.0 2.7 58 3.4 CALM 0 0 0 0 1020.2 1019.2 0.0
28/05:00am 10.7 8.4 2.8 58 3.4 ESE 4 7 2 4 1019.9 1018.9 0.0
28/04:30am 10.7 9.2 2.8 58 3.5 CALM 0 0 0 0 1019.7 1018.7 0.0
28/04:00am 11.1 8.3 3.2 58 3.5 S 7 9 4 5 1019.6 1018.6 0.0
28/03:30am 11.4 8.5 2.4 54 3.9 SE 7 9 4 5 1019.8 1018.8 0.0
28/03:00am 12.1 8.0 2.0 50 4.4 SSW 13 13 7 7 1019.9 1018.9 0.0
28/02:30am 12.8 9.4 2.1 48 4.7 S 9 11 5 6 1020.0 1019.0 0.0
28/02:00am 12.7 9.2 1.1 45 5.0 SSW 9 13 5 7 1020.3 1019.3 0.0
28/01:30am 13.4 9.4 0.8 42 5.4 SW 11 15 6 8 1020.5 1019.5 0.0
28/01:00am 13.9 9.1 0.5 40 5.7 SW 15 17 8 9 1020.5 1019.5 0.0
28/12:30am 14.1 10.0 0.0 38 6.0 SSW 11 13 6 7 1020.7 1019.7 0.0
28/12:00am 14.6 10.0 -0.7 35 6.4 SW 13 13 7 7 1020.9 1019.9 0.0
 
Date/Time
EDT
Temp
°C
App
Temp
°C
Dew
Point
Rel
Hum
%
Delta-T
°C
Wind Press
QNH
hPa
Press
MSL
hPa
Rain
since 9 am
mm
Dir
 
Spd
km/h
Gust
km/h
Spd
kts
Gust
kts
27/11:30pm 15.5 10.6 -0.7 33 6.9 SW 15 15 8 8 1021.0 1020.0 0.0
27/11:00pm 16.4 11.5 -0.8 31 7.3 SW 15 17 8 9 1021.1 1020.1 0.0
27/10:30pm 17.1 12.1 -1.1 29 7.7 SW 15 19 8 10 1021.0 1020.0 0.0
27/10:00pm 17.5 12.1 -1.7 27 8.1 SW 17 19 9 10 1021.1 1020.1 0.0
27/09:30pm 18.8 13.4 -1.6 25 8.7 SW 17 17 9 9 1020.9 1019.9 0.0
27/09:00pm 19.8 14.6 -2.5 22 9.4 SW 15 17 8 9 1020.6 1019.6 0.0
27/08:30pm 19.8 15.5 -1.9 23 9.3 WSW 11 15 6 8 1020.2 1019.2 0.0
27/08:00pm 21.6 17.7 -1.6 21 10.2 WSW 9 9 5 5 1019.8 1018.8 0.0
27/07:30pm 22.1 18.4 -2.6 19 10.7 SW 7 9 4 5 1019.6 1018.6 0.0
27/07:00pm 23.8 19.0 -2.7 17 11.6 SW 13 17 7 9 1019.4 1018.4 0.0
27/06:30pm 25.9 19.3 -3.6 14 12.9 SW 22 28 12 15 1019.1 1018.1 0.0
27/06:00pm 26.7 20.1 -3.0 14 13.2 SW 22 30 12 16 1019.0 1017.9 0.0
27/05:30pm 26.9 20.5 -4.9 12 13.7 SSW 20 30 11 16 1018.9 1017.8 0.0
27/05:00pm 27.0 19.5 -4.8 12 13.7 SSW 26 33 14 18 1018.9 1017.8 0.0
27/04:30pm 26.9 19.3 -6.0 11 13.9 SSW 26 35 14 19 1018.9 1017.8 0.0
27/04:00pm 27.0 19.0 -5.9 11 13.9 SSW 28 33 15 18 1019.1 1018.1 0.0
27/03:30pm 27.1 20.0 -4.7 12 13.8 SSW 24 35 13 19 1019.5 1018.5 0.0
27/03:00pm 26.1 18.5 -5.5 12 13.4 SW 26 39 14 21 1019.8 1018.8 0.0
27/02:30pm 25.7 18.9 -4.7 13 13.0 SW 22 35 12 19 1020.3 1019.3 0.0
27/02:00pm 25.6 18.0 -5.9 12 13.2 SSW 26 37 14 20 1020.7 1019.7 0.0
27/01:30pm 25.3 17.8 -4.1 14 12.7 SSW 26 35 14 19 1021.1 1020.1 0.0
27/01:00pm 24.8 16.8 -5.5 13 12.6 SW 28 37 15 20 1021.6 1020.5 0.0
27/12:30pm 23.8 16.2 -5.3 14 12.1 SW 26 39 14 21 1022.0 1020.9 0.0
27/12:00pm 22.8 15.4 -3.5 17 11.2 SW 26 32 14 17 1022.4 1021.3 0.0
27/11:30am 21.8 15.0 -1.5 21 10.3 SW 24 30 13 16 1022.7 1021.6 0.0
27/11:00am 21.2 14.5 -1.3 22 9.9 SW 24 32 13 17 1022.9 1021.8 0.0
27/10:30am 21.2 15.6 1.5 27 9.2 SSW 20 30 11 16 1022.9 1021.8 0.0
27/10:00am 20.3 14.7 1.2 28 8.7 SSW 20 32 11 17 1022.9 1021.8 0.0
27/09:30am 20.3 15.1 2.2 30 8.5 SSW 19 26 10 14 1022.8 1021.7 0.0
27/09:00am 19.2 14.4 2.6 33 7.7 S 17 20 9 11 1022.7 1021.6 0.0
27/08:30am 16.8 12.4 2.8 39 6.4 SSW 15 19 8 10 1022.4 1021.3 0.0
27/08:00am 14.5 10.7 3.9 49 4.9 SSW 13 15 7 8 1021.9 1020.8 0.0
27/07:30am 13.5 9.3 3.6 51 4.5 SSW 15 19 8 10 1021.6 1020.5 0.0
27/07:00am 14.1 9.6 4.1 51 4.6 SSW 17 19 9 10 1021.2 1020.2 0.0
27/06:30am 14.0 9.9 4.3 52 4.5 SSW 15 19 8 10 1020.8 1019.8 0.0
27/06:00am 14.2 10.8 3.9 50 4.7 SSW 11 13 6 7 1020.5 1019.5 0.0
27/05:30am 15.4 10.9 4.2 47 5.3 SSW 17 20 9 11 1020.1 1019.1 0.0
27/05:00am 16.0 11.2 4.4 46 5.5 SSW 19 24 10 13 1020.0 1019.0 0.0
27/04:30am 16.3 11.3 4.4 45 5.6 SSW 20 26 11 14 1019.9 1018.9 0.0
27/04:00am 16.7 11.7 4.4 44 5.8 SSW 20 26 11 14 1019.9 1018.9 0.0
27/03:30am 17.2 11.4 4.5 43 6.1 SSW 24 30 13 16 1019.8 1018.8 0.0
27/03:00am 16.9 12.0 4.3 43 6.0 SSW 19 24 10 13 1020.1 1019.1 0.0
27/02:30am 16.9 11.8 3.2 40 6.4 SSW 19 24 10 13 1020.2 1019.2 0.0
27/02:00am 15.5 11.1 2.7 42 5.8 SSW 15 19 8 10 1020.2 1019.2 0.0
27/01:30am 15.8 11.8 2.6 41 6.0 SW 13 13 7 7 1020.3 1019.3 0.0
27/01:00am 16.1 11.7 2.5 40 6.2 SW 15 17 8 9 1020.5 1019.5 0.0
27/12:30am 16.3 12.2 2.3 39 6.4 SW 13 17 7 9 1020.5 1019.5 0.0
27/12:00am 16.8 12.7 2.4 38 6.6 SW 13 15 7 8 1020.5 1019.5 0.0
 
Date/Time
EDT
Temp
°C
App
Temp
°C
Dew
Point
Rel
Hum
%
Delta-T
°C
Wind Press
QNH
hPa
Press
MSL
hPa
Rain
since 9 am
mm
Dir
 
Spd
km/h
Gust
km/h
Spd
kts
Gust
kts
26/11:30pm 17.4 13.2 1.8 35 7.1 SW 13 15 7 8 1020.6 1019.6 0.0
26/11:00pm 18.2 14.0 1.7 33 7.5 SSW 13 13 7 7 1020.6 1019.6 0.0
26/10:30pm 19.0 14.4 1.5 31 8.0 SSW 15 17 8 9 1020.6 1019.6 0.0
26/10:00pm 19.9 15.2 0.9 28 8.6 SW 15 17 8 9 1020.5 1019.5 0.0
26/09:30pm 21.2 16.1 1.0 26 9.3 SW 17 19 9 10 1020.2 1019.2 0.0
26/09:00pm 22.2 16.8 1.3 25 9.7 SW 19 24 10 13 1019.8 1018.8 0.0
26/08:30pm 22.6 17.2 1.0 24 10.0 SW 19 20 10 11 1019.4 1018.4 0.0
26/08:00pm 23.9 18.8 0.9 22 10.8 SW 17 19 9 10 1019.0 1017.9 0.0
26/07:30pm 24.7 19.4 -0.4 19 11.6 SW 17 20 9 11 1018.4 1017.3 0.0
26/07:00pm 26.5 19.8 -1.3 16 12.7 SW 24 33 13 18 1018.0 1016.9 0.0
26/06:30pm 28.2 20.6 -1.8 14 13.8 SW 28 33 15 18 1017.6 1016.5 0.0
26/06:00pm 29.2 21.8 -1.0 14 14.2 SW 28 37 15 20 1017.3 1016.2 0.0
26/05:30pm 29.4 22.1 0.1 15 14.1 WSW 28 39 15 21 1017.1 1016.0 0.0
26/05:00pm 29.8 22.6 0.4 15 14.2 SW 28 35 15 19 1017.0 1015.9 0.0
26/04:30pm 30.0 23.9 0.6 15 14.3 WSW 22 32 12 17 1017.0 1015.9 0.0
26/04:00pm 30.3 23.9 0.8 15 14.4 SW 24 33 13 18 1017.1 1016.0 0.0
26/03:30pm 29.9 24.5 1.4 16 14.1 WSW 19 30 10 16 1017.4 1016.3 0.0
26/03:00pm 29.8 23.5 1.3 16 14.0 WSW 24 32 13 17 1017.7 1016.6 0.0
26/02:30pm 29.6 24.1 2.0 17 13.7 SW 20 32 11 17 1018.0 1016.9 0.0
26/02:00pm 28.9 23.7 2.2 18 13.3 WSW 19 32 10 17 1018.4 1017.3 0.0
26/01:30pm 28.8 22.5 1.3 17 13.5 SW 24 33 13 18 1018.8 1017.7 0.0
26/01:00pm 28.9 23.0 1.4 17 13.5 SW 22 33 12 18 1019.2 1018.2 0.0
26/12:30pm 28.5 23.3 2.7 19 12.9 WSW 19 30 10 16 1019.3 1018.3 0.0
26/12:00pm 28.3 22.3 0.9 17 13.2 WSW 22 22 12 12 1019.5 1018.5 0.0
26/11:30am 27.4 22.8 1.8 19 12.5 SSW 15 22 8 12 1019.7 1018.7 0.0
26/11:00am 26.5 22.9 0.3 18 12.4 SW 9 13 5 7 1019.8 1018.8 0.0
26/10:30am 25.8 22.9 1.2 20 11.8 SSW 6 9 3 5 1019.9 1018.9 0.0
26/10:00am 24.9 22.9 4.6 27 10.2 SSW 4 7 2 4 1019.7 1018.7 0.0
26/09:30am 22.9 22.3 7.4 37 8.1 CALM 0 0 0 0 1019.6 1018.6 0.0

Other Formats:

Comma delimited format used in spreadsheet applications
http://www.bom.gov.au/fwo/IDN60801/IDN60801.95527.axf

JavaScript Object Notation format (JSON) in row-major order
http://www.bom.gov.au/fwo/IDN60801/IDN60801.95527.json